»·PEaware :: AAL93 KDCA-KDFW

AAL93 :: KDCA-KDFW

FLIGHT INFORMATION

Flight Status: Arrived
Operator:
American Airlines
More flights by this operator :: More flights under this callsign
Pilot: Anonymous 14085 (14085)
Aircraft: BOEING 737-800
(B738)
More flights by this aircraft type
Origin: KDCA Ronald Reagan Washington Natl
United States
Destination: KDFW Dallas-Ft Worth Intl
United States
More flights between these airports :: More routes between these airports
Route: OTTTO Q80 FAREV BWG J6 LIT MEEOW FEWWW SEEVR4
File this flight plan on PilotEdge
Remarks: PBN / A1B1C1D1S1S2 DOF / 171116 REG / N806SB EET / KZID0031 KZME0111 KZFW0215 OPR / AAL PER / C RMK / TCAS SIMBRIEF
Altitude:
(Current/Filed)
34,000ft
Speed:
(Current/Filed)
457kts
Departed: 15-Nov-17 06:15 PM
Arrived: 15-Nov-17 09:09 PM
Distance/Time
Traveled:
1033nm/2:54
Distance/Time
To Go:
Arrived

Flight Plot

Page will automatically refresh every two minutes.

Flight plan parsing failed; only flown route is shown


Map Options




Map Legend


Flown Route
Filed Route
Departure Airport
Arrival Airport
Navaid (VOR, NDB)
Fix

Horizontal Profiles

Position Reports

Time Latitude Longitude Heading Altitude Ground
Speed
15-Nov-17 17:54 38.854850 -77.041473 169 21ft 0kts
15-Nov-17 17:55 38.854850 -77.041473 169 21ft 0kts
15-Nov-17 17:56 38.854850 -77.041473 169 21ft 0kts
15-Nov-17 17:57 38.854850 -77.041473 169 21ft 0kts
15-Nov-17 17:58 38.854850 -77.041473 169 21ft 0kts
15-Nov-17 17:59 38.854850 -77.041473 169 21ft 0kts
15-Nov-17 18:00 38.854850 -77.041473 169 21ft 0kts
15-Nov-17 18:01 38.854850 -77.041473 169 21ft 0kts
15-Nov-17 18:02 38.854850 -77.041473 169 21ft 0kts
15-Nov-17 18:03 38.854850 -77.041473 169 21ft 0kts
15-Nov-17 18:04 38.854850 -77.041473 169 21ft 0kts
15-Nov-17 18:05 38.854850 -77.041473 169 21ft 0kts
15-Nov-17 18:06 38.854850 -77.041473 169 21ft 0kts
15-Nov-17 18:07 38.854850 -77.041473 169 21ft 0kts
15-Nov-17 18:08 38.854850 -77.041473 169 21ft 0kts
15-Nov-17 18:09 38.854850 -77.041473 169 21ft 0kts
15-Nov-17 18:10 38.855093 -77.041593 126 22ft 2kts
15-Nov-17 18:11 38.855110 -77.041960 70 22ft 0kts
15-Nov-17 18:12 38.855110 -77.041960 70 22ft 0kts
15-Nov-17 18:13 38.855110 -77.041959 70 22ft 0kts
15-Nov-17 18:14 38.855178 -77.041706 71 22ft 6kts
15-Nov-17 18:15 38.853207 -77.039356 176 22ft 14kts
15-Nov-17 18:16 38.849963 -77.039006 176 22ft 15kts
15-Nov-17 18:17 38.845681 -77.040093 192 21ft 14kts
15-Nov-17 18:18 38.842777 -77.038455 139 21ft 15kts
15-Nov-17 18:19 38.842319 -77.036833 356 21ft 0kts
15-Nov-17 18:20 38.846716 -77.037291 356 22ft 91kts
15-Nov-17 18:21 38.885777 -77.050078 320 1295ft 176kts
15-Nov-17 18:22 38.915737 -77.102598 271 3589ft 224kts
15-Nov-17 18:23 38.906177 -77.182940 275 5448ft 254kts
15-Nov-17 18:24 38.965042 -77.210749 9 9218ft 274kts
15-Nov-17 18:25 39.043785 -77.193887 342 12036ft 315kts
15-Nov-17 18:26 39.089259 -77.276569 307 15268ft 333kts
15-Nov-17 18:27 39.173927 -77.289660 348 18275ft 377kts
15-Nov-17 18:28 39.221485 -77.378500 252 21604ft 337kts
15-Nov-17 18:29 39.152172 -77.458282 209 24541ft 367kts
15-Nov-17 18:30 39.064967 -77.525851 233 27324ft 372kts
15-Nov-17 18:31 39.022166 -77.647372 248 29773ft 384kts
15-Nov-17 18:32 38.982720 -77.775941 248 32209ft 393kts
15-Nov-17 18:33 38.943325 -77.905977 248 34128ft 401kts
15-Nov-17 18:34 38.903300 -78.039768 248 34110ft 407kts
15-Nov-17 18:35 38.864799 -78.170073 249 36714ft 396kts
15-Nov-17 18:36 38.851639 -78.305430 271 38067ft 392kts
15-Nov-17 18:37 38.842531 -78.442419 257 38069ft 387kts
15-Nov-17 18:38 38.819483 -78.576810 257 38068ft 387kts
15-Nov-17 18:39 38.797411 -78.707262 257 38080ft 388kts
15-Nov-17 18:40 38.775050 -78.840526 257 38079ft 388kts
15-Nov-17 18:41 38.752590 -78.975369 257 38077ft 388kts
15-Nov-17 18:42 38.730403 -79.109502 258 38048ft 388kts
15-Nov-17 18:43 38.708275 -79.244205 258 38046ft 388kts
15-Nov-17 18:44 38.685772 -79.379433 258 38043ft 388kts
15-Nov-17 18:45 38.663384 -79.514029 258 38041ft 388kts
15-Nov-17 18:46 38.641171 -79.648478 258 38039ft 388kts
15-Nov-17 18:47 38.618627 -79.776984 256 38052ft 388kts
15-Nov-17 18:48 38.594262 -79.911232 257 38050ft 388kts
15-Nov-17 18:49 38.570068 -80.045452 257 38048ft 389kts
15-Nov-17 18:50 38.545586 -80.180013 256 38046ft 389kts
15-Nov-17 18:51 38.519919 -80.313574 256 38044ft 389kts
15-Nov-17 18:52 38.494365 -80.447225 256 38020ft 389kts
15-Nov-17 18:53 38.468955 -80.580926 257 38013ft 389kts
15-Nov-17 18:54 38.443860 -80.713452 257 38023ft 386kts
15-Nov-17 18:55 38.419215 -80.844675 257 38023ft 386kts
15-Nov-17 18:56 38.394572 -80.976683 257 38031ft 386kts
15-Nov-17 18:57 38.369693 -81.109065 255 38043ft 387kts
15-Nov-17 18:58 38.337666 -81.239436 254 38044ft 387kts
15-Nov-17 18:59 38.306012 -81.369858 254 38042ft 387kts
15-Nov-17 19:00 38.274288 -81.500611 254 38040ft 387kts
15-Nov-17 19:01 38.242126 -81.631227 255 38038ft 387kts
15-Nov-17 19:02 38.209486 -81.757779 252 38052ft 388kts
15-Nov-17 19:03 38.172565 -81.886373 252 38050ft 388kts
15-Nov-17 19:04 38.136008 -82.014527 252 38049ft 388kts
15-Nov-17 19:05 38.099395 -82.143368 253 38073ft 388kts
15-Nov-17 19:06 38.063078 -82.271668 253 38046ft 388kts
15-Nov-17 19:07 38.026710 -82.400673 253 38053ft 398kts
15-Nov-17 19:08 37.989410 -82.533436 253 38039ft 400kts
15-Nov-17 19:09 37.952519 -82.661181 252 38044ft 400kts
15-Nov-17 19:10 37.920148 -82.772742 252 38052ft 401kts
15-Nov-17 19:11 37.881641 -82.903504 252 38050ft 401kts
15-Nov-17 19:12 37.842355 -83.033245 252 38061ft 401kts
15-Nov-17 19:13 37.801944 -83.167245 254 38071ft 410kts
15-Nov-17 19:14 37.761996 -83.301623 254 38070ft 409kts
15-Nov-17 19:15 37.722222 -83.436046 254 38068ft 409kts
15-Nov-17 19:16 37.682475 -83.570653 254 38066ft 409kts
15-Nov-17 19:17 37.643282 -83.703782 254 38078ft 410kts
15-Nov-17 19:18 37.604159 -83.837243 254 38077ft 409kts
15-Nov-17 19:19 37.565021 -83.971334 254 38075ft 409kts
15-Nov-17 19:20 37.526113 -84.105156 254 38074ft 409kts
15-Nov-17 19:21 37.487308 -84.239145 255 38088ft 409kts
15-Nov-17 19:22 37.445516 -84.372364 253 38097ft 410kts
15-Nov-17 19:23 37.403588 -84.504779 254 38095ft 409kts
15-Nov-17 19:24 37.361805 -84.637416 255 38093ft 409kts
15-Nov-17 19:25 37.323779 -84.758262 254 38107ft 409kts
15-Nov-17 19:26 37.281683 -84.890441 253 38105ft 410kts
15-Nov-17 19:27 37.239561 -85.022765 254 38104ft 409kts
15-Nov-17 19:28 37.200357 -85.156300 261 38110ft 404kts
15-Nov-17 19:29 37.171788 -85.291399 260 38076ft 404kts
15-Nov-17 19:30 37.142624 -85.426926 260 38071ft 404kts
15-Nov-17 19:31 37.113510 -85.562949 260 38069ft 404kts
15-Nov-17 19:32 37.084823 -85.697514 260 38134ft 405kts
15-Nov-17 19:33 37.056085 -85.833160 260 38135ft 404kts
15-Nov-17 19:34 37.027566 -85.968556 260 38133ft 404kts
15-Nov-17 19:35 36.999065 -86.104662 260 38131ft 405kts
15-Nov-17 19:36 36.970869 -86.239956 260 38129ft 404kts
15-Nov-17 19:37 36.942763 -86.375607 260 38127ft 404kts
15-Nov-17 19:38 36.905687 -86.507755 251 38124ft 412kts
15-Nov-17 19:39 36.858724 -86.635586 252 38117ft 411kts
15-Nov-17 19:40 36.811763 -86.764199 251 38131ft 412kts
15-Nov-17 19:41 36.764832 -86.893254 251 38103ft 411kts
15-Nov-17 19:42 36.717867 -87.022793 252 38100ft 412kts
15-Nov-17 19:43 36.670910 -87.152697 252 38099ft 412kts
15-Nov-17 19:44 36.624394 -87.281772 252 38123ft 411kts
15-Nov-17 19:45 36.576538 -87.410531 251 38123ft 412kts
15-Nov-17 19:46 36.527620 -87.539359 251 38121ft 412kts
15-Nov-17 19:47 36.479397 -87.666716 250 38154ft 412kts
15-Nov-17 19:48 36.431151 -87.794405 251 38160ft 412kts
15-Nov-17 19:49 36.382895 -87.922599 251 38158ft 412kts
15-Nov-17 19:50 36.334831 -88.050652 251 38134ft 412kts
15-Nov-17 19:51 36.286745 -88.179131 251 38127ft 413kts
15-Nov-17 19:52 36.238573 -88.308207 251 38126ft 414kts
15-Nov-17 19:53 36.190618 -88.437070 251 38125ft 414kts
15-Nov-17 19:54 36.142656 -88.566324 251 38123ft 414kts
15-Nov-17 19:55 36.091918 -88.689544 250 38142ft 426kts
15-Nov-17 19:56 36.037968 -88.818131 250 38136ft 425kts
15-Nov-17 19:57 35.984016 -88.947121 250 38135ft 425kts
15-Nov-17 19:58 35.930356 -89.075755 250 38159ft 425kts
15-Nov-17 19:59 35.876767 -89.204560 250 38150ft 425kts
15-Nov-17 20:00 35.823216 -89.333621 250 38148ft 425kts
15-Nov-17 20:01 35.769648 -89.463070 250 38147ft 425kts
15-Nov-17 20:02 35.716233 -89.592496 251 38146ft 425kts
15-Nov-17 20:03 35.664447 -89.718219 250 38158ft 426kts
15-Nov-17 20:04 35.611212 -89.847888 250 38157ft 426kts
15-Nov-17 20:05 35.558225 -89.977308 250 38156ft 426kts
15-Nov-17 20:06 35.514112 -90.085321 251 38155ft 426kts
15-Nov-17 20:07 35.452423 -90.236776 251 38153ft 426kts
15-Nov-17 20:08 35.399771 -90.366420 251 38152ft 426kts
15-Nov-17 20:09 35.355965 -90.474552 251 38151ft 427kts
15-Nov-17 20:10 35.303532 -90.604299 251 38150ft 427kts
15-Nov-17 20:11 35.243447 -90.753320 251 38162ft 427kts
15-Nov-17 20:12 35.200118 -90.861140 251 38184ft 427kts
15-Nov-17 20:13 35.139846 -91.011524 251 38160ft 427kts
15-Nov-17 20:14 35.087928 -91.141443 251 38185ft 427kts
15-Nov-17 20:15 35.044874 -91.249451 251 38146ft 428kts
15-Nov-17 20:16 34.994022 -91.377333 252 38104ft 418kts
15-Nov-17 20:17 34.943551 -91.504602 252 38181ft 418kts
15-Nov-17 20:18 34.895627 -91.625757 252 38164ft 418kts
15-Nov-17 20:19 34.849147 -91.743441 252 38104ft 418kts
15-Nov-17 20:20 34.799421 -91.869828 252 38101ft 418kts
15-Nov-17 20:21 34.749462 -91.997065 252 38179ft 418kts
15-Nov-17 20:22 34.699830 -92.123845 252 38179ft 418kts
15-Nov-17 20:23 34.658114 -92.253134 259 38176ft 410kts
15-Nov-17 20:24 34.622489 -92.384495 259 38176ft 410kts
15-Nov-17 20:25 34.586895 -92.515699 259 38174ft 410kts
15-Nov-17 20:26 34.551441 -92.646909 259 38172ft 410kts
15-Nov-17 20:27 34.516937 -92.774925 259 38186ft 410kts
15-Nov-17 20:28 34.482011 -92.905200 259 38185ft 410kts
15-Nov-17 20:29 34.446912 -93.036656 259 38183ft 410kts
15-Nov-17 20:30 34.411715 -93.168914 260 38177ft 408kts
15-Nov-17 20:31 34.376524 -93.301867 260 38180ft 417kts
15-Nov-17 20:32 34.341557 -93.434434 260 38166ft 416kts
15-Nov-17 20:33 34.304288 -93.567114 256 38153ft 420kts
15-Nov-17 20:34 34.262618 -93.694799 256 38164ft 420kts
15-Nov-17 20:35 34.220365 -93.825414 256 38170ft 420kts
15-Nov-17 20:36 34.178719 -93.956502 257 38163ft 420kts
15-Nov-17 20:37 34.137299 -94.087840 257 38159ft 420kts
15-Nov-17 20:38 34.096022 -94.219018 257 38158ft 420kts
15-Nov-17 20:39 34.054743 -94.350652 257 38156ft 419kts
15-Nov-17 20:40 34.013676 -94.482059 257 38155ft 419kts
15-Nov-17 20:41 33.972840 -94.613177 257 38154ft 419kts
15-Nov-17 20:42 33.933467 -94.739901 257 38166ft 420kts
15-Nov-17 20:43 33.897887 -94.854896 257 38163ft 420kts
15-Nov-17 20:44 33.859656 -94.978835 257 37741ft 398kts
15-Nov-17 20:45 33.821420 -95.103220 257 36001ft 399kts
15-Nov-17 20:46 33.781893 -95.228501 256 34228ft 408kts
15-Nov-17 20:47 33.741021 -95.356364 255 32415ft 415kts
15-Nov-17 20:48 33.699736 -95.484102 255 30594ft 405kts
15-Nov-17 20:49 33.659364 -95.608512 255 28414ft 395kts
15-Nov-17 20:50 33.621391 -95.725191 254 26222ft 381kts
15-Nov-17 20:51 33.583150 -95.841045 253 24036ft 371kts
15-Nov-17 20:52 33.545849 -95.954226 253 21899ft 362kts
15-Nov-17 20:53 33.509402 -96.065126 253 19805ft 354kts
15-Nov-17 20:54 33.474002 -96.173099 253 17762ft 339kts
15-Nov-17 20:55 33.436246 -96.272255 235 15786ft 332kts
15-Nov-17 20:56 33.380980 -96.347908 232 13840ft 328kts
15-Nov-17 20:57 33.324065 -96.424646 223 11992ft 294kts
15-Nov-17 20:58 33.256913 -96.480407 218 11394ft 295kts
15-Nov-17 20:59 33.189831 -96.535613 218 10845ft 291kts
15-Nov-17 21:00 33.129883 -96.584980 218 10355ft 278kts
15-Nov-17 21:01 33.066817 -96.636939 218 9839ft 277kts
15-Nov-17 21:02 33.005283 -96.687652 217 9338ft 276kts
15-Nov-17 21:03 32.942706 -96.739474 217 8706ft 275kts
15-Nov-17 21:04 32.894992 -96.779745 217 7682ft 276kts
15-Nov-17 21:05 32.845858 -96.823731 217 6481ft 264kts
15-Nov-17 21:06 32.790932 -96.877461 231 5165ft 251kts
15-Nov-17 21:07 32.751533 -96.939086 233 4264ft 223kts
15-Nov-17 21:08 32.717619 -96.992779 240 3756ft 191kts
15-Nov-17 21:09 32.733668 -97.033786 358 3334ft 165kts
15-Nov-17 21:10 32.771585 -97.027957 4 2716ft 140kts
15-Nov-17 21:11 32.807979 -97.026633 1 2037ft 145kts
15-Nov-17 21:12 32.843962 -97.026676 359 1226ft 137kts
15-Nov-17 21:13 32.878589 -97.026171 359 668ft 142kts
15-Nov-17 21:14 32.893680 -97.027899 317 614ft 18kts
15-Nov-17 21:15 32.893936 -97.032137 268 614ft 16kts
15-Nov-17 21:16 32.894185 -97.036315 279 613ft 12kts
15-Nov-17 21:17 32.894576 -97.038773 347 614ft 4kts
15-Nov-17 21:18 32.894627 -97.038786 347 614ft 0kts
15-Nov-17 21:19 32.894627 -97.038786 347 614ft 0kts

Navigation Log

Ident Type
Flight plan parsing failed, navigation log unavailable